Time;durP1;ratioP1;P1;durP2;ratioP2;P2;SDS_P1;SDS_P2;PMS_P1;PMS_P2;Temp;Humidity;BMP_temperature;BMP_pressure;BME280_temperature;BME280_humidity;BME280_pressure;Samples;Min_cycle;Max_cycle;Signal;HPM_P1;HPM_P2
2023/02/05 00:00:55;;;;;;;3.70;1.30;;;;;;;-2.72;63.25;101054.48;106001;1257;60824;-66
2023/02/05 00:03:23;;;;;;;3.30;0.90;;;;;;;-2.74;63.31;101054.86;106027;1257;61039;-67
2023/02/05 00:05:52;;;;;;;3.60;1.50;;;;;;;-2.71;63.40;101056.88;106067;1256;74504;-66
2023/02/05 00:08:21;;;;;;;4.10;1.10;;;;;;;-2.65;63.00;101055.08;106150;1260;71225;-67
2023/02/05 00:10:52;;;;;;;3.60;1.00;;;;;;;-2.59;63.09;101060.48;105989;1257;72393;-66
2023/02/05 00:13:21;;;;;;;6.10;1.40;;;;;;;-2.58;63.07;101061.67;105631;1257;60508;-68
2023/02/05 00:15:49;;;;;;;4.90;1.80;;;;;;;-2.58;62.97;101063.38;105985;1260;61462;-69
2023/02/05 00:18:18;;;;;;;4.80;1.70;;;;;;;-2.58;63.11;101062.20;106059;1256;74773;-69
2023/02/05 00:20:47;;;;;;;4.20;1.10;;;;;;;-2.54;62.93;101063.16;106019;1257;71883;-66
2023/02/05 00:23:15;;;;;;;4.70;1.00;;;;;;;-2.52;62.70;101059.87;106017;1257;73651;-68
2023/02/05 00:25:43;;;;;;;4.90;1.10;;;;;;;-2.51;62.94;101059.85;105953;1258;60578;-68
2023/02/05 00:28:11;;;;;;;5.30;2.30;;;;;;;-2.53;63.01;101061.09;106054;1257;61408;-68
2023/02/05 00:30:40;;;;;;;5.00;1.40;;;;;;;-2.56;62.86;101062.32;105869;1260;73764;-69
2023/02/05 00:33:09;;;;;;;4.10;1.00;;;;;;;-2.49;63.01;101058.96;105953;1257;70282;-70
2023/02/05 00:35:37;;;;;;;6.50;1.50;;;;;;;-2.44;62.99;101055.27;106329;1254;73634;-67
2023/02/05 00:38:06;;;;;;;4.40;1.70;;;;;;;-2.42;63.07;101054.73;106134;1254;60460;-67
2023/02/05 00:40:34;;;;;;;4.40;1.50;;;;;;;-2.41;63.11;101049.74;106146;1257;60464;-69
2023/02/05 00:43:02;;;;;;;3.60;1.30;;;;;;;-2.39;63.00;101056.23;106112;1254;74750;-67
2023/02/05 00:45:33;;;;;;;3.40;1.20;;;;;;;-2.40;63.03;101057.80;106187;1254;71203;-68
2023/02/05 00:48:03;;;;;;;4.60;0.80;;;;;;;-2.30;62.97;101062.63;106128;1254;72665;-68
2023/02/05 00:50:32;;;;;;;5.00;1.60;;;;;;;-2.23;62.95;101066.48;106128;1254;60732;-68
2023/02/05 00:53:01;;;;;;;4.20;1.00;;;;;;;-2.22;62.86;101058.88;106169;1256;61408;-68
2023/02/05 00:55:29;;;;;;;5.50;2.00;;;;;;;-2.21;62.81;101059.21;106156;1255;74781;-68
2023/02/05 00:57:57;;;;;;;5.70;1.70;;;;;;;-2.21;62.98;101062.65;106025;1259;69965;-68
2023/02/05 01:00:26;;;;;;;3.60;1.10;;;;;;;-2.21;62.88;101059.91;106064;1259;73465;-69
2023/02/05 01:02:55;;;;;;;4.50;1.10;;;;;;;-2.13;62.70;101058.58;107009;1259;60772;-67
2023/02/05 01:05:23;;;;;;;4.40;1.60;;;;;;;-2.08;62.56;101059.52;106008;1255;61164;-68
2023/02/05 01:07:51;;;;;;;5.30;1.40;;;;;;;-2.10;62.62;101052.84;106065;1254;73825;-69
2023/02/05 01:10:19;;;;;;;4.00;1.00;;;;;;;-2.09;62.82;101061.08;106141;1254;71676;-68
2023/02/05 01:12:48;;;;;;;4.70;1.30;;;;;;;-2.10;62.89;101054.91;106083;1260;71661;-68
2023/02/05 01:15:17;;;;;;;5.60;1.40;;;;;;;-2.17;62.87;101052.78;106087;1256;60473;-68
2023/02/05 01:17:45;;;;;;;7.60;2.70;;;;;;;-2.17;62.85;101052.97;106068;1254;62064;-67
2023/02/05 01:20:13;;;;;;;6.00;2.60;;;;;;;-2.14;62.82;101054.10;106147;1254;73784;-68
2023/02/05 01:22:42;;;;;;;4.30;1.40;;;;;;;-2.13;63.04;101063.73;106102;1259;71442;-69
2023/02/05 01:25:10;;;;;;;5.80;2.10;;;;;;;-2.14;63.33;101060.12;106179;1254;72417;-67
2023/02/05 01:27:38;;;;;;;4.70;2.00;;;;;;;-2.14;63.46;101062.02;106130;1258;60517;-67
2023/02/05 01:30:10;;;;;;;5.20;1.40;;;;;;;-2.09;63.28;101062.10;106065;1254;61818;-67
2023/02/05 01:32:40;;;;;;;5.10;1.50;;;;;;;-2.02;63.24;101063.20;106228;1257;73840;-69
2023/02/05 01:35:09;;;;;;;3.80;0.90;;;;;;;-2.01;63.27;101067.81;106135;1254;70700;-68
2023/02/05 01:37:37;;;;;;;7.30;2.60;;;;;;;-2.00;63.32;101065.06;106167;1254;73532;-67
2023/02/05 01:40:06;;;;;;;6.40;2.50;;;;;;;-2.02;63.29;101066.46;106105;1257;60467;-68
2023/02/05 01:42:35;;;;;;;4.70;1.40;;;;;;;-2.03;63.30;101069.40;106150;1256;61031;-69
2023/02/05 01:45:21;;;;;;;4.80;1.50;;;;;;;-1.95;63.23;101066.34;106184;1256;75104;-65
2023/02/05 01:47:57;;;;;;;6.40;1.60;;;;;;;-1.91;63.00;101064.20;106104;1254;71234;-67
2023/02/05 01:50:32;;;;;;;3.80;1.30;;;;;;;-1.92;63.10;101069.04;106137;1254;73614;-67
2023/02/05 01:53:02;;;;;;;5.80;1.90;;;;;;;-1.99;63.18;101070.02;106254;1257;60445;-67
2023/02/05 01:55:30;;;;;;;3.50;1.30;;;;;;;-2.03;63.38;101070.61;106030;1257;60368;-68
2023/02/05 01:57:59;;;;;;;6.10;1.80;;;;;;;-2.03;63.57;101067.16;106105;1254;74822;-68
2023/02/05 02:00:28;;;;;;;5.20;1.40;;;;;;;-1.94;63.48;101071.65;106122;1257;70220;-68
2023/02/05 02:02:57;;;;;;;4.60;1.70;;;;;;;-1.90;63.51;101071.74;106130;1254;73580;-68
2023/02/05 02:05:25;;;;;;;5.20;2.20;;;;;;;-1.88;63.39;101071.20;106030;1254;60572;-66
2023/02/05 02:07:54;;;;;;;4.60;1.20;;;;;;;-1.87;63.21;101072.56;106028;1254;61503;-67
2023/02/05 02:10:22;;;;;;;4.90;1.40;;;;;;;-1.87;63.31;101076.86;106073;1259;74824;-68
2023/02/05 02:12:50;;;;;;;5.10;1.90;;;;;;;-1.89;63.35;101077.92;106063;1257;71210;-69
2023/02/05 02:15:21;;;;;;;6.30;1.70;;;;;;;-1.85;63.07;101074.94;106079;1259;73635;-68
2023/02/05 02:17:56;;;;;;;6.90;2.50;;;;;;;-1.79;62.86;101075.69;106414;1254;60648;-68
2023/02/05 02:20:27;;;;;;;4.50;1.40;;;;;;;-1.77;62.83;101073.77;106114;1254;60939;-68
2023/02/05 02:23:08;;;;;;;4.80;1.70;;;;;;;-1.74;62.85;101075.77;106021;1254;75670;-68
2023/02/05 02:25:56;;;;;;;4.90;1.70;;;;;;;-1.72;62.92;101073.84;105968;1259;70973;-68
2023/02/05 02:28:34;;;;;;;5.60;2.10;;;;;;;-1.73;62.80;101070.77;106024;1255;71911;-68
2023/02/05 02:31:03;;;;;;;6.10;1.60;;;;;;;-1.74;62.85;101069.41;105995;1256;61960;-69
2023/02/05 02:33:46;;;;;;;5.30;1.60;;;;;;;-1.65;62.80;101067.54;105935;1257;61202;-69
2023/02/05 02:36:26;;;;;;;4.40;1.30;;;;;;;-1.57;62.74;101066.69;105995;1259;73781;-69
2023/02/05 02:39:05;;;;;;;5.80;1.90;;;;;;;-1.57;62.55;101067.90;106068;1259;70165;-69
2023/02/05 02:41:46;;;;;;;5.90;1.90;;;;;;;-1.60;62.78;101065.36;106001;1259;73698;-69
2023/02/05 02:44:41;;;;;;;4.80;1.50;;;;;;;-1.63;62.90;101066.30;106011;1259;60537;-68
2023/02/05 02:47:15;;;;;;;5.70;1.90;;;;;;;-1.68;62.97;101069.15;106124;1254;60578;-69
2023/02/05 02:50:16;;;;;;;5.00;2.10;;;;;;;-1.74;63.02;101067.52;106020;1259;74863;-68
2023/02/05 02:52:45;;;;;;;5.50;2.10;;;;;;;-1.70;63.24;101068.66;106066;1254;62780;-68
2023/02/05 02:55:13;;;;;;;4.70;1.60;;;;;;;-1.69;63.18;101069.85;105955;1259;72639;-68
2023/02/05 02:57:44;;;;;;;3.80;1.50;;;;;;;-1.73;63.36;101071.45;106063;1254;60465;-69
2023/02/05 03:00:22;;;;;;;6.00;1.80;;;;;;;-1.80;63.65;101070.21;106725;1256;61328;-69
2023/02/05 03:02:52;;;;;;;4.40;1.50;;;;;;;-1.86;63.94;101073.23;106037;1254;74878;-70
2023/02/05 03:05:21;;;;;;;5.20;2.10;;;;;;;-1.80;64.05;101077.79;106013;1260;71403;-71
2023/02/05 03:07:53;;;;;;;5.20;1.70;;;;;;;-1.73;64.02;101085.55;106029;1257;73710;-70
2023/02/05 03:10:25;;;;;;;4.50;1.50;;;;;;;-1.71;64.01;101081.56;106112;1256;60443;-69
2023/02/05 03:12:57;;;;;;;5.70;1.20;;;;;;;-1.70;63.85;101081.20;106224;1254;61236;-69
2023/02/05 03:15:26;;;;;;;5.90;1.70;;;;;;;-1.69;63.87;101085.84;105903;1257;75078;-68
2023/02/05 03:17:54;;;;;;;5.70;1.40;;;;;;;-1.74;64.01;101077.51;105948;1254;70203;-68
2023/02/05 03:20:25;;;;;;;6.00;1.60;;;;;;;-1.75;63.93;101081.64;105947;1254;72620;-69
2023/02/05 03:22:54;;;;;;;6.00;1.70;;;;;;;-1.71;63.79;101075.38;106011;1257;60677;-68
2023/02/05 03:25:22;;;;;;;4.50;1.90;;;;;;;-1.76;63.87;101070.83;106126;1256;61102;-68
2023/02/05 03:27:52;;;;;;;3.30;1.00;;;;;;;-1.79;64.11;101074.84;105981;1254;74623;-68
2023/02/05 03:30:23;;;;;;;5.50;1.70;;;;;;;-1.84;64.38;101078.20;108777;1254;70975;-67
2023/02/05 03:33:23;;;;;;;5.20;1.40;;;;;;;-1.86;64.40;101082.86;106058;1257;73076;-69
2023/02/05 03:36:15;;;;;;;4.80;1.90;;;;;;;-1.80;64.43;101079.16;106061;1254;60495;-69
2023/02/05 03:39:15;;;;;;;5.50;2.10;;;;;;;-1.78;64.27;101079.98;106082;1254;60495;-68
2023/02/05 03:41:57;;;;;;;4.70;1.60;;;;;;;-1.80;64.57;101082.25;105744;1259;66238;-70
2023/02/05 03:44:56;;;;;;;5.10;1.80;;;;;;;-1.86;64.64;101076.68;106133;1254;71042;-68
2023/02/05 03:47:52;;;;;;;4.10;1.30;;;;;;;-1.85;64.81;101081.99;105907;1254;65210;-69
2023/02/05 03:50:30;;;;;;;4.10;1.40;;;;;;;-1.84;64.78;101085.58;105926;1254;60487;-66
2023/02/05 03:53:31;;;;;;;5.40;2.30;;;;;;;-1.86;64.83;101082.89;105996;1254;61239;-66
2023/02/05 03:56:12;;;;;;;5.40;2.00;;;;;;;-1.90;64.67;101086.37;105911;1261;66091;-68
2023/02/05 03:58:43;;;;;;;4.40;1.20;;;;;;;-1.91;64.96;101086.90;106037;1254;69845;-69
2023/02/05 04:01:11;;;;;;;4.90;1.50;;;;;;;-1.85;64.84;101087.85;105981;1254;72641;-70
2023/02/05 04:03:40;;;;;;;4.60;1.50;;;;;;;-1.83;64.90;101087.80;105995;1257;60466;-70
2023/02/05 04:06:10;;;;;;;4.70;2.00;;;;;;;-1.83;64.84;101090.04;106245;1259;61033;-70
2023/02/05 04:08:39;;;;;;;4.70;1.40;;;;;;;-1.85;64.96;101087.16;105866;1259;74389;-70
2023/02/05 04:11:09;;;;;;;4.30;2.00;;;;;;;-1.86;65.05;101086.99;105976;1254;70969;-68
2023/02/05 04:13:39;;;;;;;4.80;2.20;;;;;;;-1.85;64.69;101086.45;106039;1259;73511;-70
2023/02/05 04:16:09;;;;;;;5.40;2.20;;;;;;;-1.81;64.60;101087.61;105971;1254;60575;-69
2023/02/05 04:18:37;;;;;;;5.60;2.10;;;;;;;-1.88;64.70;101082.21;106065;1259;61437;-68
2023/02/05 04:21:06;;;;;;;6.50;2.00;;;;;;;-1.90;64.81;101085.86;106005;1259;74671;-68
2023/02/05 04:23:35;;;;;;;5.90;2.20;;;;;;;-1.86;64.89;101084.59;105928;1259;71635;-68
2023/02/05 04:26:05;;;;;;;4.70;1.60;;;;;;;-1.82;64.71;101085.21;105934;1254;73683;-66
2023/02/05 04:28:39;;;;;;;5.80;2.00;;;;;;;-1.81;64.70;101088.11;105945;1254;60451;-70
2023/02/05 04:31:08;;;;;;;5.80;1.70;;;;;;;-1.90;64.76;101089.64;106118;1254;61141;-68
2023/02/05 04:33:38;;;;;;;7.30;2.70;;;;;;;-1.89;64.91;101094.95;106243;1256;74795;-68
2023/02/05 04:36:07;;;;;;;3.40;1.10;;;;;;;-1.86;64.68;101092.85;105933;1254;71284;-69
2023/02/05 04:38:36;;;;;;;5.00;1.60;;;;;;;-1.81;64.59;101093.79;105958;1254;72370;-71
2023/02/05 04:41:04;;;;;;;4.30;1.60;;;;;;;-1.81;64.71;101097.05;105915;1256;60515;-70
2023/02/05 04:43:33;;;;;;;5.40;2.00;;;;;;;-1.84;64.88;101099.86;105915;1257;60587;-68
2023/02/05 04:46:08;;;;;;;5.60;2.30;;;;;;;-1.90;65.00;101098.75;105962;1254;74590;-69
2023/02/05 04:48:37;;;;;;;6.40;2.10;;;;;;;-1.81;65.01;101105.84;106057;1254;74239;-67
2023/02/05 04:51:09;;;;;;;4.20;1.60;;;;;;;-1.81;65.09;101107.20;106017;1258;73131;-69
2023/02/05 04:53:38;;;;;;;8.20;1.80;;;;;;;-1.81;65.33;101114.60;106426;1254;60753;-69
2023/02/05 04:56:12;;;;;;;5.50;1.90;;;;;;;-1.84;65.49;101116.35;105937;1257;60600;-68
2023/02/05 04:58:40;;;;;;;5.80;2.20;;;;;;;-1.82;65.74;101117.70;106155;1254;74754;-70
2023/02/05 05:01:13;;;;;;;5.70;1.90;;;;;;;-1.79;65.68;101117.32;105985;1254;71122;-68
2023/02/05 05:03:42;;;;;;;6.10;1.70;;;;;;;-1.78;65.59;101118.33;105998;1254;73484;-69
2023/02/05 05:06:12;;;;;;;6.90;2.60;;;;;;;-1.81;65.67;101116.67;106285;1254;60514;-68
2023/02/05 05:08:41;;;;;;;4.50;1.90;;;;;;;-1.85;65.66;101123.08;106093;1254;60361;-68
2023/02/05 05:11:10;;;;;;;4.10;1.30;;;;;;;-1.80;65.39;101128.52;106011;1254;74791;-68
2023/02/05 05:13:39;;;;;;;4.90;1.30;;;;;;;-1.79;65.34;101120.95;106548;1257;70484;-69
2023/02/05 05:16:09;;;;;;;6.00;2.00;;;;;;;-1.76;65.53;101125.70;106006;1256;72657;-68
2023/02/05 05:18:38;;;;;;;6.60;2.40;;;;;;;-1.78;65.63;101125.57;106262;1254;60532;-70
2023/02/05 05:21:06;;;;;;;7.40;1.60;;;;;;;-1.75;65.66;101125.33;105933;1257;61028;-68
2023/02/05 05:23:35;;;;;;;7.30;2.80;;;;;;;-1.71;65.44;101125.60;106060;1254;74869;-67
2023/02/05 05:26:07;;;;;;;6.00;2.30;;;;;;;-1.72;65.51;101124.95;106000;1257;71596;-69
2023/02/05 05:28:36;;;;;;;9.70;2.30;;;;;;;-1.72;65.64;101130.27;106002;1254;74071;-68
2023/02/05 05:31:11;;;;;;;7.00;2.70;;;;;;;-1.81;65.77;101134.55;105985;1258;62143;-69
2023/02/05 05:33:40;;;;;;;5.00;2.00;;;;;;;-1.76;65.68;101134.30;106095;1254;60498;-68
2023/02/05 05:36:08;;;;;;;5.40;1.90;;;;;;;-1.68;65.66;101141.57;105996;1254;73762;-68
2023/02/05 05:38:36;;;;;;;5.60;1.90;;;;;;;-1.71;65.79;101140.05;105852;1254;71232;-69
2023/02/05 05:43:52;;;;;;;7.60;2.30;;;;;;;-1.73;65.98;101154.02;105899;1254;61748;-69
2023/02/05 05:46:22;;;;;;;7.40;2.70;;;;;;;-1.71;66.11;101153.82;105951;1254;61063;-70
2023/02/05 05:48:55;;;;;;;6.10;2.20;;;;;;;-1.67;66.16;101156.17;106139;1258;75060;-68
2023/02/05 05:51:25;;;;;;;5.90;2.10;;;;;;;-1.67;66.27;101160.98;106013;1254;71280;-70
2023/02/05 05:53:54;;;;;;;6.50;1.90;;;;;;;-1.63;66.26;101162.45;105984;1254;72850;-69
2023/02/05 05:56:22;;;;;;;8.20;3.00;;;;;;;-1.54;66.17;101163.16;105946;1254;60575;-69
2023/02/05 05:58:50;;;;;;;9.40;3.10;;;;;;;-1.43;66.05;101168.65;106050;1254;61336;-68
2023/02/05 06:01:20;;;;;;;6.00;2.40;;;;;;;-1.37;65.97;101165.62;106064;1254;74815;-70
2023/02/05 06:03:49;;;;;;;6.00;2.30;;;;;;;-1.34;65.87;101173.14;105772;1258;287089;-68
2023/02/05 06:56:44;;;;;;;7.00;3.00;;;;;;;-0.93;65.73;101211.30;107064;1261;72944;-62
2023/02/05 06:59:11;;;;;;;9.40;3.30;;;;;;;-0.88;65.49;101212.77;107936;1249;70942;-68
2023/02/05 07:01:38;;;;;;;6.10;2.70;;;;;;;-0.88;65.18;101213.10;107787;1244;73622;-68
2023/02/05 07:04:06;;;;;;;7.20;2.30;;;;;;;-0.91;65.25;101212.99;107791;1247;60433;-67
2023/02/05 07:06:34;;;;;;;10.30;3.30;;;;;;;-0.95;65.31;101211.16;107766;1244;61123;-70
2023/02/05 07:09:04;;;;;;;6.90;2.80;;;;;;;-0.92;65.40;101214.39;108067;1246;73746;-69
2023/02/05 07:11:31;;;;;;;7.10;1.90;;;;;;;-0.88;65.28;101212.77;108111;1244;71535;-73
2023/02/05 07:14:01;;;;;;;8.10;3.60;;;;;;;-0.90;65.42;101219.51;108066;1240;72755;-71
2023/02/05 07:16:29;;;;;;;5.90;2.20;;;;;;;-0.89;65.48;101215.72;108343;1240;59691;-73
2023/02/05 07:18:59;;;;;;;8.40;2.90;;;;;;;-0.89;65.53;101213.31;108035;1246;60215;-70
2023/02/05 07:21:26;;;;;;;5.90;2.50;;;;;;;-0.90;65.11;101220.55;108028;1241;73862;-72
2023/02/05 07:23:52;;;;;;;7.10;3.40;;;;;;;-0.87;65.11;101221.35;108034;1246;70369;-70
2023/02/05 07:26:19;;;;;;;8.70;3.80;;;;;;;-0.89;65.44;101222.41;108021;1241;73340;-71
2023/02/05 07:28:46;;;;;;;6.60;2.50;;;;;;;-0.90;65.48;101222.44;108100;1246;59623;-72
2023/02/05 07:31:15;;;;;;;7.50;3.00;;;;;;;-0.91;65.88;101226.95;108079;1241;61842;-71
2023/02/05 07:33:43;;;;;;;7.60;3.40;;;;;;;-0.86;65.50;101222.20;108118;1244;72799;-73
2023/02/05 07:36:12;;;;;;;4.80;2.50;;;;;;;-0.80;65.68;101227.24;108264;1246;71125;-72
2023/02/05 07:38:40;;;;;;;7.00;2.10;;;;;;;-0.79;66.08;101223.60;108643;1246;73006;-71
2023/02/05 07:41:07;;;;;;;6.00;2.20;;;;;;;-0.76;66.25;101220.80;107836;1240;60388;-72
2023/02/05 07:43:35;;;;;;;6.80;2.40;;;;;;;-0.74;66.33;101221.27;107964;1241;59981;-75
2023/02/05 07:46:04;;;;;;;6.30;2.20;;;;;;;-0.64;66.35;101222.97;108023;1240;73938;-74
2023/02/05 07:48:32;;;;;;;7.10;3.10;;;;;;;-0.57;66.26;101221.60;108078;1246;70011;-73
2023/02/05 07:51:00;;;;;;;8.10;2.70;;;;;;;-0.58;66.17;101222.15;108122;1241;72570;-73
2023/02/05 07:53:27;;;;;;;5.90;2.20;;;;;;;-0.61;66.04;101227.23;108108;1242;60401;-73
2023/02/05 07:55:54;;;;;;;6.90;2.60;;;;;;;-0.62;66.39;101226.91;108109;1246;60633;-73
2023/02/05 07:58:20;;;;;;;7.70;2.90;;;;;;;-0.59;66.47;101222.88;108125;1240;74018;-70
2023/02/05 08:00:48;;;;;;;10.30;3.40;;;;;;;-0.50;66.34;101227.87;108233;1240;71167;-74
2023/02/05 08:03:15;;;;;;;6.30;3.40;;;;;;;-0.48;66.58;101228.00;108123;1241;73236;-75
2023/02/05 08:05:43;;;;;;;8.30;2.50;;;;;;;-0.46;66.58;101225.36;108487;1246;60562;-74
2023/02/05 08:08:10;;;;;;;10.70;3.60;;;;;;;-0.44;66.28;101222.22;108215;1241;61000;-74
2023/02/05 08:10:36;;;;;;;7.60;2.70;;;;;;;-0.34;66.19;101230.30;107978;1240;73816;-71
2023/02/05 08:13:03;;;;;;;7.60;2.60;;;;;;;-0.27;66.07;101233.24;108084;1240;71103;-72
2023/02/05 08:15:30;;;;;;;9.40;3.00;;;;;;;-0.25;65.96;101235.28;107944;1246;73603;-72
2023/02/05 08:17:57;;;;;;;9.90;3.30;;;;;;;-0.29;65.60;101240.53;108083;1241;60436;-74
2023/02/05 08:20:25;;;;;;;9.80;4.60;;;;;;;-0.30;65.78;101241.06;108134;1241;60215;-73
2023/02/05 08:22:52;;;;;;;7.60;4.10;;;;;;;-0.25;65.48;101247.17;108075;1246;73853;-73
2023/02/05 08:25:19;;;;;;;7.40;3.40;;;;;;;-0.23;65.38;101249.88;108020;1241;71339;-73
2023/02/05 08:27:48;;;;;;;8.50;3.40;;;;;;;-0.29;65.31;101253.29;108138;1245;73565;-72
2023/02/05 08:30:16;;;;;;;8.30;3.30;;;;;;;-0.35;65.20;101261.70;108169;1249;60387;-73
2023/02/05 08:32:48;;;;;;;9.00;3.10;;;;;;;-0.32;65.44;101258.52;108546;1241;61030;-73
2023/02/05 08:35:15;;;;;;;8.80;3.20;;;;;;;-0.25;65.28;101264.06;108156;1242;72437;-74
2023/02/05 08:37:42;;;;;;;7.80;3.20;;;;;;;-0.24;65.46;101265.77;107976;1246;71294;-72
2023/02/05 08:40:10;;;;;;;8.70;3.30;;;;;;;-0.24;65.57;101272.14;107982;1246;73852;-70
2023/02/05 08:42:37;;;;;;;8.80;3.80;;;;;;;-0.25;65.58;101273.55;108001;1245;59739;-69
2023/02/05 08:45:07;;;;;;;8.40;3.90;;;;;;;-0.27;65.46;101270.33;107871;1240;60007;-73
2023/02/05 08:47:35;;;;;;;7.10;2.30;;;;;;;-0.24;65.15;101270.77;107925;1246;73855;-71
2023/02/05 08:50:03;;;;;;;8.60;3.30;;;;;;;-0.26;65.49;101270.46;107985;1246;70193;-71
2023/02/05 08:52:30;;;;;;;7.30;2.90;;;;;;;-0.28;65.93;101270.67;108201;1245;73540;-70
2023/02/05 08:54:57;;;;;;;7.30;3.60;;;;;;;-0.29;65.94;101271.04;107937;1245;61178;-73
2023/02/05 08:57:28;;;;;;;8.30;3.10;;;;;;;-0.25;65.62;101274.06;107963;1241;61139;-70
2023/02/05 08:59:56;;;;;;;7.40;3.40;;;;;;;-0.24;65.64;101278.68;108132;1240;73798;-72
2023/02/05 09:02:23;;;;;;;11.00;3.90;;;;;;;-0.26;65.86;101277.88;108045;1246;70565;-70
2023/02/05 09:04:57;;;;;;;8.20;3.30;;;;;;;-0.29;65.70;101282.94;107961;1245;73527;-68
2023/02/05 09:07:38;;;;;;;10.80;5.50;;;;;;;-0.28;65.67;101285.16;108140;1241;62060;-70
2023/02/05 09:10:07;;;;;;;8.80;2.90;;;;;;;-0.26;65.69;101283.40;107996;1240;59551;-72
2023/02/05 09:12:34;;;;;;;8.60;4.40;;;;;;;-0.25;65.75;101289.41;107943;1240;72926;-71
2023/02/05 09:15:01;;;;;;;7.90;3.80;;;;;;;-0.26;65.75;101288.73;108002;1241;71343;-72
2023/02/05 09:17:28;;;;;;;9.70;3.50;;;;;;;-0.27;65.90;101289.98;107887;1246;73518;-70
2023/02/05 09:19:56;;;;;;;7.80;3.50;;;;;;;-0.21;65.84;101287.25;107957;1246;61675;-71
2023/02/05 09:22:23;;;;;;;7.10;2.90;;;;;;;-0.17;65.61;101282.01;107924;1241;60222;-68
2023/02/05 09:24:49;;;;;;;11.20;4.00;;;;;;;-0.20;65.59;101280.18;107988;1240;74021;-71
2023/02/05 09:27:16;;;;;;;8.20;3.30;;;;;;;-0.23;65.74;101280.39;107959;1245;70087;-73
2023/02/05 09:29:43;;;;;;;9.90;4.30;;;;;;;-0.30;66.08;101272.27;107902;1241;74310;-71
2023/02/05 09:32:10;;;;;;;8.40;3.50;;;;;;;-0.23;66.07;101274.20;108009;1242;60436;-74
2023/02/05 09:34:37;;;;;;;9.90;4.30;;;;;;;-0.17;66.27;101274.75;108148;1241;60180;-72
2023/02/05 09:37:04;;;;;;;9.60;4.20;;;;;;;-0.17;66.05;101272.17;108121;1246;73925;-74
2023/02/05 09:39:31;;;;;;;10.10;4.70;;;;;;;-0.15;66.16;101271.27;108127;1237;71013;-69
2023/02/05 09:43:08;;;;;;;9.40;4.40;;;;;;;-0.12;66.14;101271.20;108238;1241;73547;-72
2023/02/05 09:45:49;;;;;;;6.80;2.80;;;;;;;-0.00;66.08;101271.29;108139;1243;59696;-72
2023/02/05 09:48:31;;;;;;;8.70;3.00;;;;;;;0.06;66.02;101270.48;108564;1241;60995;-72
2023/02/05 09:50:58;;;;;;;7.90;3.30;;;;;;;0.07;65.81;101271.83;108423;1241;74353;-71
2023/02/05 09:53:26;;;;;;;9.60;3.40;;;;;;;0.07;65.84;101274.59;108435;1241;71164;-72
2023/02/05 09:55:53;;;;;;;8.40;3.60;;;;;;;0.06;65.47;101276.52;108404;1237;73543;-73
2023/02/05 09:58:23;;;;;;;7.50;2.90;;;;;;;0.07;64.87;101274.92;108318;1238;61782;-73
2023/02/05 10:00:53;;;;;;;8.00;3.30;;;;;;;0.12;64.72;101279.65;108467;1238;60006;-73
2023/02/05 10:03:24;;;;;;;6.00;1.90;;;;;;;0.09;64.11;101282.84;108578;1241;73922;-70
2023/02/05 10:06:10;;;;;;;7.80;3.10;;;;;;;0.07;64.11;101287.89;108347;1244;71053;-73
2023/02/05 10:09:01;;;;;;;6.90;1.90;;;;;;;-0.02;63.94;101286.86;108358;1237;73592;-70
2023/02/05 10:11:48;;;;;;;7.10;3.10;;;;;;;-0.04;63.94;101288.96;108635;1237;62017;-70
2023/02/05 10:14:34;;;;;;;6.90;2.50;;;;;;;0.04;64.01;101288.27;108350;1241;60946;-71
2023/02/05 10:17:20;;;;;;;;;;;;;;;0.06;63.93;101291.34;108380;1239;73930;-71
2023/02/05 10:19:49;;;;;;;7.50;3.10;;;;;;;0.05;64.03;101292.91;108391;1238;71254;-75
2023/02/05 10:22:20;;;;;;;7.90;2.70;;;;;;;0.00;64.04;101295.79;108724;1241;73746;-69
2023/02/05 10:25:03;;;;;;;7.10;2.30;;;;;;;-0.03;63.81;101297.93;108338;1240;60064;-71
2023/02/05 10:27:38;;;;;;;6.40;2.80;;;;;;;0.04;64.03;101299.17;108651;1241;61214;-74
2023/02/05 10:30:23;;;;;;;8.90;3.10;;;;;;;0.13;64.18;101306.90;108598;1238;73765;-71
2023/02/05 10:32:58;;;;;;;5.80;2.40;;;;;;;0.18;64.41;101313.87;108741;1237;70422;-74
2023/02/05 10:35:43;;;;;;;8.90;4.00;;;;;;;0.21;64.54;101312.42;108500;1237;73656;-72
2023/02/05 10:38:15;;;;;;;6.20;2.30;;;;;;;0.22;64.58;101314.13;108468;1241;60522;-72
2023/02/05 10:40:45;;;;;;;8.20;2.40;;;;;;;0.26;64.27;101313.87;108353;1241;60468;-72
2023/02/05 10:43:25;;;;;;;7.00;2.90;;;;;;;0.32;64.13;101316.14;108357;1239;74895;-72
2023/02/05 10:45:53;;;;;;;5.30;1.90;;;;;;;0.34;63.67;101313.34;108609;1241;70955;-73
2023/02/05 10:48:49;;;;;;;7.20;2.30;;;;;;;0.37;63.45;101319.83;108219;1237;72622;-71
2023/02/05 10:51:21;;;;;;;7.80;2.90;;;;;;;0.34;63.29;101317.98;108460;1238;60446;-68
2023/02/05 10:53:48;;;;;;;6.10;3.30;;;;;;;0.31;63.08;101323.94;108947;1239;61444;-69
2023/02/05 10:56:17;;;;;;;7.70;3.10;;;;;;;0.27;63.31;101323.84;109036;1233;73640;-69
2023/02/05 10:58:58;;;;;;;6.40;2.50;;;;;;;0.31;63.51;101327.38;109153;1236;71067;-69
2023/02/05 11:01:30;;;;;;;7.80;2.50;;;;;;;0.41;63.41;101328.71;108866;1235;73549;-76
2023/02/05 11:04:08;;;;;;;5.20;2.20;;;;;;;0.44;63.29;101332.79;108797;1238;60740;-73
2023/02/05 11:06:41;;;;;;;6.20;2.40;;;;;;;0.43;63.45;101332.64;108988;1237;60705;-74
2023/02/05 11:09:24;;;;;;;5.90;3.60;;;;;;;0.44;63.33;101333.81;109055;1236;73531;-72
2023/02/05 11:12:05;;;;;;;7.10;2.80;;;;;;;0.45;63.27;101329.83;108923;1236;71034;-75
2023/02/05 11:14:41;;;;;;;9.10;2.70;;;;;;;0.50;63.08;101335.58;108634;1237;73244;-70
2023/02/05 11:17:23;;;;;;;7.30;3.20;;;;;;;0.50;63.09;101334.55;108955;1239;60548;-70
2023/02/05 11:20:03;;;;;;;7.60;3.40;;;;;;;0.50;63.14;101335.58;108602;1235;61216;-70
2023/02/05 11:22:35;;;;;;;8.20;3.20;;;;;;;0.47;63.13;101336.01;108909;1237;74680;-74
2023/02/05 11:25:05;;;;;;;7.90;2.60;;;;;;;0.45;63.11;101334.33;108906;1244;71158;-73
2023/02/05 11:27:36;;;;;;;6.10;3.00;;;;;;;0.49;63.19;101336.48;108951;1237;72535;-71
2023/02/05 11:30:30;;;;;;;7.20;2.90;;;;;;;0.54;63.32;101336.71;108879;1235;59343;-72
2023/02/05 11:33:25;;;;;;;5.90;2.40;;;;;;;0.57;63.63;101339.05;108962;1235;60545;-70
2023/02/05 11:36:01;;;;;;;10.60;3.40;;;;;;;0.63;63.68;101344.26;108998;1237;74639;-71
2023/02/05 11:38:49;;;;;;;6.90;2.60;;;;;;;0.66;63.61;101339.53;109064;1237;71716;-71
2023/02/05 11:41:52;;;;;;;8.40;3.40;;;;;;;0.69;63.53;101337.21;109317;1237;73464;-71
2023/02/05 11:44:24;;;;;;;7.50;2.80;;;;;;;0.74;63.67;101342.09;108869;1235;60518;-70
2023/02/05 11:46:56;;;;;;;8.00;2.50;;;;;;;0.76;63.89;101342.92;108992;1237;60443;-69
2023/02/05 11:49:31;;;;;;;6.60;1.90;;;;;;;0.78;64.20;101345.30;108516;1241;74884;-72
2023/02/05 11:51:58;;;;;;;7.00;3.00;;;;;;;0.80;64.39;101348.20;109051;1236;69569;-67
2023/02/05 11:54:30;;;;;;;6.20;2.40;;;;;;;0.83;64.02;101349.67;108889;1237;72352;-70
2023/02/05 11:57:04;;;;;;;9.90;3.50;;;;;;;0.79;64.32;101352.36;109045;1241;60406;-73
2023/02/05 11:59:33;;;;;;;9.60;4.00;;;;;;;0.77;64.66;101355.17;108657;1236;61365;-68
2023/02/05 12:02:29;;;;;;;9.00;3.80;;;;;;;0.75;64.96;101354.69;108967;1236;74711;-71
2023/02/05 12:05:04;;;;;;;7.10;3.00;;;;;;;0.78;65.23;101357.21;108857;1237;62548;-71
2023/02/05 12:07:43;;;;;;;7.40;3.80;;;;;;;0.77;65.41;101357.06;108776;1235;73747;-70
2023/02/05 12:10:47;;;;;;;7.70;2.50;;;;;;;0.69;65.98;101360.18;109969;1237;60653;-70
2023/02/05 12:13:24;;;;;;;10.80;4.50;;;;;;;0.61;66.71;101367.11;108810;1234;60513;-70
2023/02/05 12:16:27;;;;;;;10.00;3.80;;;;;;;0.64;66.98;101368.59;108861;1240;74879;-69
2023/02/05 12:19:01;;;;;;;7.70;4.00;;;;;;;0.70;66.99;101370.52;108497;1240;71316;-70
2023/02/05 12:21:31;;;;;;;10.30;3.60;;;;;;;0.72;67.22;101370.30;109130;1235;73731;-71
2023/02/05 12:24:14;;;;;;;6.90;3.40;;;;;;;0.73;67.45;101370.80;108893;1235;61712;-68
2023/02/05 12:26:44;;;;;;;9.40;3.90;;;;;;;0.72;67.93;101370.48;109164;1238;61193;-70
2023/02/05 12:29:37;;;;;;;8.40;3.90;;;;;;;0.76;67.93;101372.98;109181;1236;73822;-72
2023/02/05 12:32:07;;;;;;;7.80;3.30;;;;;;;0.84;67.96;101378.15;108970;1235;71140;-70
2023/02/05 12:34:44;;;;;;;7.80;3.40;;;;;;;0.86;68.01;101377.75;108967;1235;73662;-68
2023/02/05 12:37:47;;;;;;;7.20;3.10;;;;;;;0.88;68.04;101379.08;108808;1241;60490;-70